createdAt,value
2023-04-29T00:02:04.333Z,99258.97
2023-04-29T00:05:07.747Z,99256.33
2023-04-29T00:08:09.675Z,99255.42
2023-04-29T00:11:11.238Z,99256.58
2023-04-29T00:14:13.545Z,99253.12
2023-04-29T00:17:15.282Z,99256.15
2023-04-29T00:20:17.045Z,99255.73
2023-04-29T00:23:18.814Z,99258.46
2023-04-29T00:26:20.374Z,99255.92
2023-04-29T00:29:22.158Z,99249.77
2023-04-29T00:32:24.523Z,99251.70
2023-04-29T00:35:26.165Z,99259.45
2023-04-29T00:38:27.909Z,99255.79
2023-04-29T00:41:30.046Z,99249.90
2023-04-29T00:44:31.755Z,99253.64
2023-04-29T00:47:33.379Z,99256.44
2023-04-29T00:50:35.600Z,99252.17
2023-04-29T00:53:38.092Z,99255.46
2023-04-29T00:56:40.435Z,99254.48
2023-04-29T00:59:42.206Z,99248.78
2023-04-29T01:02:43.862Z,99246.79
2023-04-29T01:05:47.655Z,99246.58
2023-04-29T01:09:21.889Z,99248.45
2023-04-29T01:12:33.836Z,99249.02
2023-04-29T01:16:11.847Z,99251.50
2023-04-29T01:19:29.752Z,99248.66
2023-04-29T01:22:31.457Z,99253.95
2023-04-29T01:25:33.267Z,99258.40
2023-04-29T01:28:49.402Z,99255.92
2023-04-29T01:32:26.864Z,99259.95
2023-04-29T01:35:53.499Z,99256.44
2023-04-29T01:39:16.986Z,99253.08
2023-04-29T01:42:24.790Z,99253.55
2023-04-29T01:45:26.630Z,99253.40
2023-04-29T01:48:28.358Z,99255.35
2023-04-29T01:51:30.247Z,99257.56
2023-04-29T01:54:32.152Z,99252.50
2023-04-29T01:57:33.740Z,99254.04
2023-04-29T02:00:35.333Z,99248.45
2023-04-29T02:03:39.350Z,99247.42
2023-04-29T02:06:41.253Z,99251.11
2023-04-29T02:09:42.821Z,99251.73
2023-04-29T02:12:44.516Z,99248.92
2023-04-29T02:15:46.072Z,99242.67
2023-04-29T02:18:47.734Z,99238.49
2023-04-29T02:21:49.319Z,99236.73
2023-04-29T02:24:50.958Z,99237.55
2023-04-29T02:27:52.534Z,99234.75
2023-04-29T02:30:54.107Z,99232.25
2023-04-29T02:33:55.919Z,99228.75
2023-04-29T02:36:57.407Z,99226.79
2023-04-29T02:39:59.106Z,99225.23
2023-04-29T02:43:00.997Z,99223.83
2023-04-29T02:46:02.761Z,99220.27
2023-04-29T02:49:04.531Z,99221.24
2023-04-29T02:52:06.040Z,99222.90
2023-04-29T02:55:08.282Z,99222.51
2023-04-29T02:58:10.450Z,99224.59
2023-04-29T03:01:12.162Z,99224.08
2023-04-29T03:04:13.772Z,99225.55
2023-04-29T03:07:15.627Z,99221.54
2023-04-29T03:10:17.129Z,99222.80
2023-04-29T03:13:18.789Z,99226.22
2023-04-29T03:16:20.378Z,99227.38
2023-04-29T03:19:22.468Z,99227.48
2023-04-29T03:22:24.174Z,99227.80
2023-04-29T03:25:25.891Z,99230.83
2023-04-29T03:28:27.459Z,99231.83
2023-04-29T03:31:29.185Z,99228.44
2023-04-29T03:34:31.087Z,99230.63
2023-04-29T03:37:32.655Z,99227.28
2023-04-29T03:40:34.367Z,99230.55
2023-04-29T03:43:36.195Z,99232.13
2023-04-29T03:46:37.960Z,99227.90
2023-04-29T03:49:39.709Z,99223.33
2023-04-29T03:52:41.376Z,99224.91
2023-04-29T03:55:43.025Z,99220.22
2023-04-29T03:58:44.571Z,99224.20
2023-04-29T04:01:46.237Z,99223.50
2023-04-29T04:04:47.938Z,99224.31
2023-04-29T04:07:49.810Z,99222.59
2023-04-29T04:10:51.452Z,99224.66
2023-04-29T04:13:52.975Z,99224.14
2023-04-29T04:16:54.678Z,99221.71
2023-04-29T04:19:56.190Z,99213.95
2023-04-29T04:22:57.881Z,99217.71
2023-04-29T04:25:59.374Z,99218.48
2023-04-29T04:29:01.106Z,99218.11
2023-04-29T04:32:02.879Z,99214.06
2023-04-29T04:35:05.213Z,99212.55
2023-04-29T04:38:06.876Z,99212.66
2023-04-29T04:41:08.582Z,99210.65
2023-04-29T04:44:11.023Z,99211.95
2023-04-29T04:47:12.674Z,99212.73
2023-04-29T04:50:14.167Z,99213.20
2023-04-29T04:53:15.825Z,99213.19
2023-04-29T04:56:17.639Z,99219.36
2023-04-29T04:59:19.212Z,99216.91
2023-04-29T05:02:20.799Z,99214.16
2023-04-29T05:05:22.516Z,99215.87
2023-04-29T05:08:24.799Z,99212.06
2023-04-29T05:11:26.530Z,99213.05
2023-04-29T05:14:28.212Z,99218.55
2023-04-29T05:17:30.097Z,99220.40
2023-04-29T05:20:31.704Z,99220.95
2023-04-29T05:23:33.240Z,99220.29
2023-04-29T05:26:34.831Z,99219.70
2023-04-29T05:29:36.350Z,99220.73
2023-04-29T05:32:38.110Z,99217.95
2023-04-29T05:35:39.832Z,99214.61
2023-04-29T05:38:41.447Z,99215.58
2023-04-29T05:41:43.296Z,99219.90
2023-04-29T05:44:45.060Z,99225.61
2023-04-29T05:47:47.356Z,99228.64
2023-04-29T05:50:49.076Z,99230.48
2023-04-29T05:53:50.792Z,99231.44
2023-04-29T05:56:52.489Z,99232.42
2023-04-29T05:59:54.376Z,99230.27
2023-04-29T06:02:58.969Z,99229.91
2023-04-29T06:06:01.453Z,99225.67
2023-04-29T06:09:05.222Z,99222.31
2023-04-29T06:12:10.746Z,99225.35
2023-04-29T06:15:12.686Z,99226.06
2023-04-29T06:18:14.384Z,99220.70
2023-04-29T06:21:15.989Z,99218.85
2023-04-29T06:24:17.687Z,99211.99
2023-04-29T06:27:19.355Z,99212.92
2023-04-29T06:30:21.315Z,99210.21
2023-04-29T06:33:23.001Z,99211.46
2023-04-29T06:36:24.659Z,99215.71
2023-04-29T06:39:26.279Z,99215.34
2023-04-29T06:42:28.120Z,99213.95
2023-04-29T06:45:30.090Z,99211.98
2023-04-29T06:48:31.703Z,99211.71
2023-04-29T06:51:33.291Z,99211.05
2023-04-29T06:54:38.074Z,99212.48
2023-04-29T06:57:40.183Z,99218.02
2023-04-29T07:00:45.296Z,99217.90
2023-04-29T07:03:47.162Z,99222.23
2023-04-29T07:06:49.199Z,99217.56
2023-04-29T07:09:51.274Z,99214.18
2023-04-29T07:12:53.486Z,99213.10
2023-04-29T07:15:55.165Z,99209.34
2023-04-29T07:18:56.952Z,99207.73
2023-04-29T07:21:58.756Z,99210.98
2023-04-29T07:25:00.518Z,99208.17
2023-04-29T07:28:02.244Z,99208.11
2023-04-29T07:31:03.992Z,99206.34
2023-04-29T07:34:05.808Z,99206.48
2023-04-29T07:37:07.633Z,99206.14
2023-04-29T07:40:09.501Z,99200.91
2023-04-29T07:43:11.085Z,99205.25
2023-04-29T07:46:12.715Z,99203.27
2023-04-29T07:49:14.424Z,99204.67
2023-04-29T07:52:16.105Z,99205.33
2023-04-29T07:55:17.787Z,99206.88
2023-04-29T07:58:19.363Z,99202.95
2023-04-29T08:01:21.004Z,99202.05
2023-04-29T08:04:23.146Z,99202.36
2023-04-29T08:07:25.001Z,99204.27
2023-04-29T08:10:26.619Z,99203.99
2023-04-29T08:13:28.271Z,99202.98
2023-04-29T08:16:30.103Z,99200.33
2023-04-29T08:19:31.768Z,99201.93
2023-04-29T08:22:33.501Z,99205.11
2023-04-29T08:25:35.141Z,99203.19
2023-04-29T08:28:36.859Z,99200.66
2023-04-29T08:31:38.510Z,99203.62
2023-04-29T08:34:40.407Z,99204.52
2023-04-29T08:37:42.058Z,99202.23
2023-04-29T08:40:46.223Z,99201.57
2023-04-29T08:43:47.821Z,99202.27
2023-04-29T08:46:50.026Z,99201.22
2023-04-29T08:49:51.777Z,99196.03
2023-04-29T08:52:53.371Z,99193.81
2023-04-29T08:55:55.918Z,99184.08
2023-04-29T08:58:58.245Z,99180.16
2023-04-29T09:02:00.485Z,99185.63
2023-04-29T09:05:09.150Z,99181.20
2023-04-29T09:08:11.901Z,99182.25
2023-04-29T09:11:14.155Z,99181.61
2023-04-29T09:14:16.236Z,99183.40
2023-04-29T09:17:17.973Z,99176.18
2023-04-29T09:20:22.674Z,99177.45
2023-04-29T09:23:37.189Z,99180.15
2023-04-29T09:26:43.174Z,99180.39
2023-04-29T09:30:01.240Z,99180.20
2023-04-29T09:33:05.122Z,99177.26
2023-04-29T09:36:06.854Z,99173.36
2023-04-29T09:39:09.647Z,99176.92
2023-04-29T09:42:11.265Z,99172.22
2023-04-29T09:45:12.921Z,99169.16
2023-04-29T09:48:15.791Z,99167.52
2023-04-29T09:51:17.432Z,99165.48
2023-04-29T09:54:21.598Z,99163.42
2023-04-29T09:57:40.026Z,99162.94
2023-04-29T10:00:42.875Z,99157.30
2023-04-29T10:03:45.946Z,99155.65
2023-04-29T10:06:54.880Z,99154.30
2023-04-29T10:09:56.819Z,99150.11
2023-04-29T10:13:00.413Z,99144.68
2023-04-29T10:16:14.902Z,99145.15
2023-04-29T10:19:25.601Z,99147.69
2023-04-29T10:22:29.553Z,99144.92
2023-04-29T10:25:31.602Z,99140.74
2023-04-29T10:28:33.575Z,99141.58
2023-04-29T10:31:35.614Z,99139.55
2023-04-29T10:34:38.246Z,99141.81
2023-04-29T10:37:43.957Z,99140.19
2023-04-29T10:40:46.378Z,99135.94
2023-04-29T10:43:48.043Z,99125.94
2023-04-29T10:46:49.750Z,99123.11
2023-04-29T10:50:04.613Z,99123.60
2023-04-29T10:53:06.204Z,99125.83
2023-04-29T10:56:09.826Z,99128.27
2023-04-29T10:59:13.036Z,99130.48
2023-04-29T11:02:14.648Z,99133.62
2023-04-29T11:05:16.350Z,99128.30
2023-04-29T11:08:21.446Z,99124.09
2023-04-29T11:11:24.422Z,99126.29
2023-04-29T11:14:35.763Z,99124.85
2023-04-29T11:17:37.880Z,99122.37
2023-04-29T11:21:05.761Z,99120.25
2023-04-29T11:24:07.416Z,99117.73
2023-04-29T11:27:09.340Z,99115.20
2023-04-29T11:30:11.512Z,99118.31
2023-04-29T11:33:13.609Z,99120.39
2023-04-29T11:36:15.417Z,99116.88
2023-04-29T11:39:17.112Z,99115.98
2023-04-29T11:42:22.652Z,99109.14
2023-04-29T11:45:24.297Z,99112.97
2023-04-29T11:48:26.490Z,99114.12
2023-04-29T11:51:28.114Z,99115.46
2023-04-29T11:54:30.411Z,99116.85
2023-04-29T11:57:32.116Z,99114.63
2023-04-29T12:00:33.855Z,99112.33
2023-04-29T12:03:35.800Z,99110.78
2023-04-29T12:06:37.650Z,99103.82
2023-04-29T12:09:45.988Z,99108.40
2023-04-29T12:12:48.207Z,99110.77
2023-04-29T12:15:50.712Z,99107.65
2023-04-29T12:18:52.828Z,99108.93
2023-04-29T12:21:54.388Z,99104.35
2023-04-29T12:24:57.232Z,99107.50
2023-04-29T12:28:02.461Z,99110.08
2023-04-29T12:31:04.199Z,99110.27
2023-04-29T12:34:08.259Z,99109.04
2023-04-29T12:37:11.540Z,99102.95
2023-04-29T12:40:17.256Z,99103.60
2023-04-29T12:43:18.879Z,99100.63
2023-04-29T12:46:21.197Z,99096.52
2023-04-29T12:49:24.846Z,99095.05
2023-04-29T12:52:26.468Z,99092.42
2023-04-29T12:55:28.171Z,99088.96
2023-04-29T12:58:30.677Z,99087.61
2023-04-29T13:01:32.351Z,99088.73
2023-04-29T13:04:34.148Z,99086.84
2023-04-29T13:07:37.123Z,99087.52
2023-04-29T13:10:38.919Z,99086.99
2023-04-29T13:13:40.617Z,99080.68
2023-04-29T13:16:42.290Z,99080.41
2023-04-29T13:19:50.390Z,99077.84
2023-04-29T13:22:53.256Z,99077.80
2023-04-29T13:25:54.945Z,99075.17
2023-04-29T13:28:56.568Z,99079.22
2023-04-29T13:31:58.295Z,99076.42
2023-04-29T13:35:00.044Z,99075.30
2023-04-29T13:38:02.343Z,99071.43
2023-04-29T13:41:05.572Z,99072.21
2023-04-29T13:44:21.584Z,99072.57
2023-04-29T13:47:31.725Z,99068.70
2023-04-29T13:51:00.898Z,99067.46
2023-04-29T14:00:15.180Z,99072.04
2023-04-29T14:03:21.797Z,99071.15
2023-04-29T14:06:23.604Z,99070.73
2023-04-29T14:09:25.208Z,99067.91
2023-04-29T14:12:26.808Z,99071.42
2023-04-29T14:15:28.593Z,99070.09
2023-04-29T14:18:30.336Z,99067.94
2023-04-29T14:21:32.261Z,99066.16
2023-04-29T14:24:33.852Z,99063.97
2023-04-29T14:27:35.621Z,99064.46
2023-04-29T14:30:37.262Z,99067.67
2023-04-29T14:33:39.579Z,99069.65
2023-04-29T14:36:41.489Z,99065.20
2023-04-29T14:39:43.067Z,99068.15
2023-04-29T14:42:44.759Z,99067.91
2023-04-29T14:45:46.378Z,99065.50
2023-04-29T14:48:48.079Z,99064.79
2023-04-29T14:51:49.658Z,99068.06
2023-04-29T14:54:51.541Z,99070.83
2023-04-29T14:57:53.391Z,99071.33
2023-04-29T15:00:55.251Z,99072.27
2023-04-29T15:03:57.081Z,99076.15
2023-04-29T15:06:58.795Z,99085.13
2023-04-29T15:10:00.418Z,99089.56
2023-04-29T15:13:02.416Z,99090.05
2023-04-29T15:16:04.444Z,99090.94
2023-04-29T15:19:06.109Z,99090.30
2023-04-29T15:22:07.750Z,99090.77
2023-04-29T15:25:09.617Z,99088.61
2023-04-29T15:28:11.215Z,99089.66
2023-04-29T15:31:13.180Z,99090.85
2023-04-29T15:34:15.039Z,99089.58
2023-04-29T15:37:16.630Z,99091.55
2023-04-29T15:40:18.447Z,99087.58
2023-04-29T15:43:20.028Z,99088.00
2023-04-29T15:46:21.733Z,99085.96
2023-04-29T15:49:24.651Z,99080.99
2023-04-29T15:52:26.485Z,99076.86
2023-04-29T15:55:28.213Z,99075.21
2023-04-29T15:58:30.032Z,99072.31
2023-04-29T16:01:31.983Z,99073.06
2023-04-29T16:04:34.727Z,99074.07
2023-04-29T16:07:36.875Z,99074.41
2023-04-29T16:10:38.656Z,99074.33
2023-04-29T16:13:40.486Z,99070.13
2023-04-29T16:16:42.271Z,99070.10
2023-04-29T16:19:43.955Z,99069.13
2023-04-29T16:22:45.556Z,99072.08
2023-04-29T16:25:47.151Z,99073.63
2023-04-29T16:28:48.822Z,99079.95
2023-04-29T16:31:50.711Z,99080.96
2023-04-29T16:34:53.016Z,99076.48
2023-04-29T16:37:55.107Z,99081.80
2023-04-29T16:40:56.766Z,99083.34
2023-04-29T16:43:58.593Z,99082.04
2023-04-29T16:47:00.356Z,99081.17
2023-04-29T16:50:02.000Z,99080.78
2023-04-29T16:53:04.294Z,99083.89
2023-04-29T16:56:05.985Z,99088.89
2023-04-29T16:59:07.770Z,99093.04
2023-04-29T17:02:09.451Z,99094.66
2023-04-29T17:05:11.224Z,99097.96
2023-04-29T17:08:12.908Z,99103.17
2023-04-29T17:11:14.592Z,99105.79
2023-04-29T17:14:16.355Z,99106.53
2023-04-29T17:17:18.137Z,99109.08
2023-04-29T17:20:20.150Z,99112.31
2023-04-29T17:23:21.903Z,99110.30
2023-04-29T17:26:23.544Z,99113.13
2023-04-29T17:29:25.784Z,99111.45
2023-04-29T17:32:27.638Z,99110.30
2023-04-29T17:35:29.287Z,99114.20
2023-04-29T17:38:31.874Z,99112.63
2023-04-29T17:41:33.499Z,99115.19
2023-04-29T17:44:35.102Z,99116.35
2023-04-29T17:47:36.723Z,99114.98
2023-04-29T17:50:38.490Z,99117.20
2023-04-29T17:53:40.144Z,99120.81
2023-04-29T17:56:41.818Z,99119.65
2023-04-29T17:59:43.473Z,99123.78
2023-04-29T18:02:45.411Z,99124.77
2023-04-29T18:05:47.101Z,99127.36
2023-04-29T18:08:49.106Z,99131.97
2023-04-29T18:11:50.717Z,99132.55
2023-04-29T18:14:52.546Z,99130.72
2023-04-29T18:17:54.149Z,99129.09
2023-04-29T18:20:55.813Z,99132.94
2023-04-29T18:23:57.577Z,99135.59
2023-04-29T18:26:59.201Z,99142.70
2023-04-29T18:30:01.322Z,99149.14
2023-04-29T18:33:03.226Z,99147.27
2023-04-29T18:36:05.162Z,99149.80
2023-04-29T18:39:06.841Z,99150.95
2023-04-29T18:42:08.676Z,99159.40
2023-04-29T18:45:10.788Z,99161.92
2023-04-29T18:48:12.523Z,99162.70
2023-04-29T18:51:14.428Z,99165.97
2023-04-29T18:54:17.845Z,99169.17
2023-04-29T18:57:19.491Z,99166.26
2023-04-29T19:00:21.097Z,99169.13
2023-04-29T19:03:22.778Z,99171.08
2023-04-29T19:06:24.638Z,99173.40
2023-04-29T19:09:27.091Z,99175.27
2023-04-29T19:12:28.995Z,99180.59
2023-04-29T19:15:30.717Z,99187.16
2023-04-29T19:18:32.392Z,99184.42
2023-04-29T19:21:34.156Z,99186.19
2023-04-29T19:24:35.857Z,99189.33
2023-04-29T19:27:37.580Z,99200.70
2023-04-29T19:30:39.257Z,99221.77
2023-04-29T19:33:41.327Z,99224.79
2023-04-29T19:36:42.924Z,99224.43
2023-04-29T19:39:44.511Z,99231.15
2023-04-29T19:42:46.185Z,99230.39
2023-04-29T19:45:48.025Z,99233.83
2023-04-29T19:48:49.686Z,99241.80
2023-04-29T19:51:51.438Z,99248.77
2023-04-29T19:54:53.199Z,99245.66
2023-04-29T19:57:54.869Z,99250.89
2023-04-29T20:00:56.635Z,99254.84
2023-04-29T20:03:58.344Z,99250.09
2023-04-29T20:06:59.967Z,99248.14
2023-04-29T20:10:01.606Z,99242.23
2023-04-29T20:13:03.232Z,99237.05
2023-04-29T20:16:05.118Z,99236.36
2023-04-29T20:19:06.816Z,99245.68
2023-04-29T20:22:08.420Z,99248.23
2023-04-29T20:25:10.238Z,99246.48
2023-04-29T20:28:12.271Z,99241.09
2023-04-29T20:31:14.009Z,99232.27
2023-04-29T20:34:15.862Z,99227.55
2023-04-29T20:37:17.553Z,99220.19
2023-04-29T20:40:19.622Z,99216.80
2023-04-29T20:43:21.184Z,99212.12
2023-04-29T20:46:25.288Z,99215.90
2023-04-29T20:49:27.695Z,99211.42
2023-04-29T20:52:29.384Z,99210.44
2023-04-29T20:55:31.191Z,99209.16
2023-04-29T20:58:32.841Z,99207.75
2023-04-29T21:01:35.562Z,99208.17
2023-04-29T21:04:40.411Z,99208.27
2023-04-29T21:07:42.053Z,99203.91
2023-04-29T21:10:43.739Z,99206.23
2023-04-29T21:13:45.453Z,99209.51
2023-04-29T21:16:47.109Z,99215.61
2023-04-29T21:19:48.771Z,99217.55
2023-04-29T21:22:50.526Z,99219.33
2023-04-29T21:25:52.259Z,99219.54
2023-04-29T21:28:53.976Z,99215.95
2023-04-29T21:31:55.755Z,99218.02
2023-04-29T21:34:57.781Z,99219.07
2023-04-29T21:37:59.436Z,99221.32
2023-04-29T21:41:01.374Z,99222.99
2023-04-29T21:44:04.866Z,99221.80
2023-04-29T21:47:07.167Z,99222.50
2023-04-29T21:50:09.769Z,99224.73
2023-04-29T21:53:14.405Z,99227.08
2023-04-29T21:56:18.352Z,99222.79
2023-04-29T21:59:19.997Z,99225.54
2023-04-29T22:02:21.766Z,99223.77
2023-04-29T22:05:23.672Z,99220.93
2023-04-29T22:08:25.378Z,99223.61
2023-04-29T22:11:27.060Z,99227.98
2023-04-29T22:14:28.872Z,99225.39
2023-04-29T22:17:30.501Z,99230.38
2023-04-29T22:20:32.301Z,99232.30
2023-04-29T22:23:34.084Z,99229.16
2023-04-29T22:26:35.796Z,99227.56
2023-04-29T22:29:37.393Z,99224.79
2023-04-29T22:32:39.073Z,99224.27
2023-04-29T22:35:40.751Z,99222.09
2023-04-29T22:38:42.535Z,99216.90
2023-04-29T22:41:44.235Z,99220.53
2023-04-29T22:44:45.870Z,99221.65
2023-04-29T22:47:47.560Z,99224.16
2023-04-29T22:50:57.794Z,99225.53
2023-04-29T22:53:59.484Z,99226.22
2023-04-29T22:57:01.283Z,99228.94
2023-04-29T23:00:02.961Z,99228.17
2023-04-29T23:03:04.565Z,99222.83
2023-04-29T23:06:06.414Z,99222.65
2023-04-29T23:09:08.121Z,99228.85
2023-04-29T23:12:09.712Z,99230.02
2023-04-29T23:15:11.465Z,99227.55
2023-04-29T23:18:13.429Z,99224.80
2023-04-29T23:21:15.100Z,99224.58
2023-04-29T23:24:17.857Z,99224.88
2023-04-29T23:27:19.508Z,99226.02
2023-04-29T23:30:21.660Z,99223.21
2023-04-29T23:33:23.994Z,99222.10
2023-04-29T23:36:25.713Z,99224.67
2023-04-29T23:39:27.291Z,99225.55
2023-04-29T23:42:28.968Z,99223.31
2023-04-29T23:45:30.846Z,99230.27
2023-04-29T23:48:32.539Z,99233.02
2023-04-29T23:51:34.136Z,99230.60
2023-04-29T23:54:36.038Z,99229.55
2023-04-29T23:57:37.735Z,99229.05
